Time;durP1;ratioP1;P1;durP2;ratioP2;P2;SDS_P1;SDS_P2;PMS_P1;PMS_P2;Temp;Humidity;BMP_temperature;BMP_pressure;BME280_temperature;BME280_humidity;BME280_pressure;Samples;Min_cycle;Max_cycle;Signal;HPM_P1;HPM_P2
2021/12/30 00:00:50;;;;;;;;;2.00;2.00;;;;;14.13;85.30;101168.81;5074067;27;45440;-69
2021/12/30 00:03:16;;;;;;;;;8.00;2.00;;;;;13.98;85.44;101149.91;5074509;28;45280;-69
2021/12/30 00:05:42;;;;;;;;;1.33;1.33;;;;;14.07;85.59;101180.59;5076955;28;45427;-69
2021/12/30 00:08:07;;;;;;;;;1.00;1.00;;;;;13.98;85.57;101157.88;5076598;28;45249;-69
2021/12/30 00:10:33;;;;;;;;;1.67;1.00;;;;;14.04;85.83;101170.06;5069558;28;45706;-69
2021/12/30 00:12:58;;;;;;;;;2.33;1.00;;;;;14.09;86.50;101178.75;5077859;28;45319;-68
2021/12/30 00:15:24;;;;;;;;;1.00;1.00;;;;;14.02;86.42;101164.78;5076539;28;45361;-69
2021/12/30 00:17:50;;;;;;;;;0.00;0.00;;;;;14.09;86.38;101189.38;5076221;28;45450;-69
2021/12/30 00:20:16;;;;;;;;;3.00;0.00;;;;;14.09;86.50;101192.03;5075488;28;45434;-69
2021/12/30 00:22:42;;;;;;;;;4.33;2.33;;;;;14.08;86.35;101177.84;5074132;28;45534;-69
2021/12/30 00:25:10;;;;;;;;;2.00;1.00;;;;;14.02;86.22;101175.44;5076116;28;45600;-69
2021/12/30 00:27:35;;;;;;;;;2.00;1.00;;;;;13.99;86.15;101175.56;5060340;28;45441;-69
2021/12/30 00:30:02;;;;;;;;;4.00;1.50;;;;;14.03;86.69;101179.84;5075468;28;45555;-69
2021/12/30 00:32:27;;;;;;;;;1.00;0.00;;;;;14.15;86.53;101199.78;5074316;28;46626;-69
2021/12/30 00:34:54;;;;;;;;;0.33;0.33;;;;;14.13;86.69;101192.78;5076852;27;45809;-70
2021/12/30 00:37:19;;;;;;;;;0.00;0.00;;;;;13.87;86.73;101136.19;5072091;27;45459;-70
2021/12/30 00:39:45;;;;;;;;;0.00;0.00;;;;;14.08;86.85;101176.97;5074501;28;45711;-70
2021/12/30 00:42:10;;;;;;;;;0.00;0.00;;;;;14.12;86.63;101177.72;5079498;28;46083;-70
2021/12/30 00:44:35;;;;;;;;;2.00;0.00;;;;;14.07;86.79;101178.78;5077521;28;45482;-70
2021/12/30 00:47:02;;;;;;;;;0.00;0.00;;;;;14.14;87.36;101189.19;5074781;28;45360;-70
2021/12/30 00:49:28;;;;;;;;;0.00;0.00;;;;;14.15;87.15;101188.22;5073203;28;45553;-70
2021/12/30 00:51:54;;;;;;;;;0.00;0.00;;;;;14.11;86.78;101187.50;5073186;28;46093;-70
2021/12/30 00:54:19;;;;;;;;;0.00;0.00;;;;;14.22;86.97;101216.34;5077576;28;45415;-70
2021/12/30 00:56:45;;;;;;;;;0.00;0.00;;;;;14.21;86.98;101206.63;5070685;28;45677;-69
2021/12/30 00:59:11;;;;;;;;;0.00;0.00;;;;;14.27;86.78;101203.72;5071399;28;45593;-70
2021/12/30 01:01:37;;;;;;;;;0.00;0.00;;;;;14.15;86.10;101173.16;5069696;28;45684;-70
2021/12/30 01:04:02;;;;;;;;;1.00;0.00;;;;;14.20;86.58;101195.09;5074322;28;45590;-70
2021/12/30 01:06:28;;;;;;;;;0.33;0.33;;;;;14.27;86.79;101201.06;5076150;28;45379;-70
2021/12/30 01:08:54;;;;;;;;;0.00;0.00;;;;;14.28;86.77;101200.97;5055043;28;45622;-70
2021/12/30 01:11:22;;;;;;;;;0.00;0.00;;;;;13.74;86.78;101109.22;5069748;28;45801;-70
2021/12/30 01:13:55;;;;;;;;;0.00;0.00;;;;;14.26;86.53;101189.50;5071249;28;45431;-70
2021/12/30 01:16:24;;;;;;;;;1.00;0.00;;;;;14.23;87.02;101191.44;5071428;28;45477;-70
2021/12/30 01:19:04;;;;;;;;;0.00;0.00;;;;;14.27;86.81;101203.72;5071998;27;46006;-70
2021/12/30 01:21:33;;;;;;;;;0.00;0.00;;;;;14.32;86.40;101207.91;5056656;28;46183;-71
2021/12/30 01:24:00;;;;;;;;;0.00;0.00;;;;;14.19;86.64;101185.38;5074899;28;45475;-70
2021/12/30 01:26:26;;;;;;;;;0.00;0.00;;;;;14.16;86.57;101176.69;5072880;27;45683;-70
2021/12/30 01:28:52;;;;;;;;;0.00;0.00;;;;;14.37;86.33;101218.34;5072803;27;45262;-70
2021/12/30 01:31:18;;;;;;;;;4.00;2.00;;;;;14.34;86.84;101217.63;5067692;28;45752;-70
2021/12/30 01:33:44;;;;;;;;;0.67;0.00;;;;;14.30;86.96;101206.25;5071482;28;45672;-70
2021/12/30 01:36:11;;;;;;;;;4.00;2.00;;;;;14.41;86.79;101224.41;5069758;28;45465;-71
2021/12/30 01:38:37;;;;;;;;;0.00;0.00;;;;;14.32;86.61;101209.69;5072366;28;45530;-71
2021/12/30 01:41:04;;;;;;;;;2.00;0.00;;;;;14.24;86.61;101188.72;5072170;27;45470;-70
2021/12/30 01:43:30;;;;;;;;;0.00;0.00;;;;;14.42;86.79;101224.34;5072214;28;45806;-69
2021/12/30 01:45:56;;;;;;;;;0.00;0.00;;;;;14.43;86.49;101230.53;5068670;28;45450;-70
2021/12/30 01:48:21;;;;;;;;;0.00;0.00;;;;;14.35;86.83;101232.66;5073222;28;45523;-70
2021/12/30 01:50:48;;;;;;;;;0.00;0.00;;;;;14.44;86.58;101232.25;5074049;28;45490;-70
2021/12/30 01:53:14;;;;;;;;;0.33;0.33;;;;;14.45;86.43;101240.22;5073104;28;45338;-70
2021/12/30 01:55:41;;;;;;;;;0.00;0.00;;;;;14.45;86.47;101247.34;5071075;28;45702;-70
2021/12/30 01:58:08;;;;;;;;;1.00;1.00;;;;;14.46;86.46;101241.94;5071948;28;45468;-70
2021/12/30 02:00:36;;;;;;;;;0.00;0.00;;;;;14.47;86.63;101238.34;5069305;28;47022;-70
2021/12/30 02:03:02;;;;;;;;;0.00;0.00;;;;;14.38;86.17;101219.22;5085713;27;45411;-70
2021/12/30 02:05:28;;;;;;;;;0.00;0.00;;;;;14.48;86.49;101241.88;5067422;28;45529;-70
2021/12/30 02:07:55;;;;;;;;;0.67;0.00;;;;;14.48;85.98;101234.75;5069506;28;45580;-70
2021/12/30 02:10:21;;;;;;;;;0.33;0.00;;;;;14.31;86.59;101205.31;5071337;28;45430;-70
2021/12/30 02:12:47;;;;;;;;;0.00;0.00;;;;;14.39;86.26;101223.63;5054291;28;45362;-71
2021/12/30 02:15:15;;;;;;;;;0.00;0.00;;;;;14.39;86.48;101221.81;5070244;28;45609;-71
2021/12/30 02:17:41;;;;;;;;;1.00;0.00;;;;;14.28;86.22;101197.44;5067633;28;45478;-70
2021/12/30 02:20:11;;;;;;;;;0.00;0.00;;;;;14.07;86.08;101162.81;5068758;28;46286;-70
2021/12/30 02:22:36;;;;;;;;;0.00;0.00;;;;;14.44;86.48;101226.94;5069700;28;45369;-70
2021/12/30 02:25:04;;;;;;;;;0.00;0.00;;;;;14.46;86.41;101235.75;5069387;28;45434;-70
2021/12/30 02:27:31;;;;;;;;;2.00;0.33;;;;;14.35;86.20;101212.22;5058917;28;45396;-70
2021/12/30 02:29:56;;;;;;;;;0.00;0.00;;;;;14.19;86.28;101189.84;5060223;28;48448;-70
2021/12/30 02:32:22;;;;;;;;;1.00;0.00;;;;;14.34;86.43;101228.28;5068098;28;45240;-71
2021/12/30 02:34:49;;;;;;;;;0.00;0.00;;;;;14.47;86.46;101246.34;5068515;28;45705;-70
2021/12/30 02:37:16;;;;;;;;;0.00;0.00;;;;;14.43;86.70;101244.72;5069204;28;45405;-70
2021/12/30 02:39:45;;;;;;;;;0.00;0.00;;;;;14.44;85.98;101251.81;5073046;28;45444;-70
2021/12/30 02:42:10;;;;;;;;;0.00;0.00;;;;;14.44;85.80;101259.78;5075492;28;45401;-70
2021/12/30 02:44:35;;;;;;;;;0.00;0.00;;;;;14.35;86.01;101237.97;5073222;28;45561;-70
2021/12/30 02:47:01;;;;;;;;;0.00;0.00;;;;;14.38;85.60;101252.03;5073288;28;45343;-70
2021/12/30 02:49:26;;;;;;;;;0.00;0.00;;;;;14.47;85.77;101264.97;5073760;28;45716;-70
2021/12/30 02:51:52;;;;;;;;;0.00;0.00;;;;;14.49;85.80;101265.75;5074243;28;45377;-70
2021/12/30 02:54:17;;;;;;;;;5.50;4.00;;;;;14.44;85.34;101256.22;5067689;28;45420;-70
2021/12/30 02:56:46;;;;;;;;;3.00;1.67;;;;;14.54;85.58;101265.63;5069018;28;45403;-70
2021/12/30 02:59:13;;;;;;;;;4.00;4.00;;;;;14.56;85.42;101274.41;5067522;28;46167;-70
2021/12/30 03:01:38;;;;;;;;;21.00;15.75;;;;;14.51;86.00;101269.28;5069295;27;45443;-70
2021/12/30 03:04:04;;;;;;;;;16.00;9.75;;;;;14.48;85.28;101269.38;5072814;28;45439;-70
2021/12/30 03:06:29;;;;;;;;;7.67;5.67;;;;;14.50;85.36;101274.63;5075800;28;45317;-70
2021/12/30 03:08:56;;;;;;;;;0.67;0.00;;;;;14.42;85.37;101261.63;5064228;28;45602;-71
2021/12/30 03:11:23;;;;;;;;;8.00;6.00;;;;;14.56;85.29;101281.50;5059356;28;45304;-71
2021/12/30 03:13:49;;;;;;;;;2.00;2.00;;;;;14.51;85.14;101284.34;5070529;28;45247;-70
2021/12/30 03:16:20;;;;;;;;;9.75;7.50;;;;;14.48;85.30;101276.50;5058072;28;45640;-70
2021/12/30 03:18:48;;;;;;;;;7.25;6.50;;;;;14.38;84.93;101277.78;5073781;28;45464;-70
2021/12/30 03:21:15;;;;;;;;;6.75;5.75;;;;;14.48;85.12;101293.34;5060840;28;45391;-70
2021/12/30 03:23:41;;;;;;;;;10.00;9.25;;;;;14.54;84.89;101309.09;5070248;28;45497;-70
2021/12/30 03:26:09;;;;;;;;;3.50;2.50;;;;;14.45;84.92;101304.13;5072545;28;45650;-70
2021/12/30 03:28:36;;;;;;;;;2.33;2.00;;;;;14.49;84.75;101321.69;5072685;28;46060;-70
2021/12/30 03:31:02;;;;;;;;;17.00;14.25;;;;;14.49;84.77;101319.03;5071755;28;45591;-70
2021/12/30 03:33:30;;;;;;;;;18.75;16.25;;;;;14.51;84.94;101319.88;5070485;28;45556;-70
2021/12/30 03:36:00;;;;;;;;;4.33;3.00;;;;;14.53;84.76;101322.50;5073712;28;45282;-70
2021/12/30 03:38:32;;;;;;;;;6.75;6.75;;;;;14.54;84.47;101310.91;5072906;28;46187;-70
2021/12/30 03:40:58;;;;;;;;;7.50;5.00;;;;;14.36;84.34;101290.31;5072768;28;45459;-70
2021/12/30 03:43:24;;;;;;;;;4.33;2.67;;;;;14.33;84.79;101288.66;5072194;28;45504;-70
2021/12/30 03:45:49;;;;;;;;;3.33;2.00;;;;;14.40;84.81;101311.41;5068878;28;45383;-70
2021/12/30 03:48:15;;;;;;;;;2.33;1.00;;;;;14.48;84.64;101319.97;5074765;28;45979;-70
2021/12/30 03:50:44;;;;;;;;;3.00;2.00;;;;;14.47;84.73;101326.25;5073027;28;45518;-70
2021/12/30 03:53:11;;;;;;;;;0.00;0.00;;;;;14.39;84.68;101315.03;5072849;28;45455;-70
2021/12/30 03:55:37;;;;;;;;;0.33;0.00;;;;;14.37;84.69;101314.22;5072394;28;45518;-70
2021/12/30 03:58:03;;;;;;;;;3.00;3.00;;;;;14.41;84.71;101317.59;5071308;28;45445;-70
2021/12/30 04:00:29;;;;;;;;;4.50;2.00;;;;;14.45;84.86;101333.41;5070061;28;45373;-70
2021/12/30 04:02:55;;;;;;;;;4.00;1.00;;;;;14.37;84.76;101322.19;5071415;28;45411;-70
2021/12/30 04:05:22;;;;;;;;;0.33;0.33;;;;;14.44;85.19;101329.03;5070795;28;45495;-70
2021/12/30 04:07:48;;;;;;;;;2.00;0.67;;;;;14.46;85.18;101336.94;5072766;28;45407;-70
2021/12/30 04:10:15;;;;;;;;;0.00;0.00;;;;;14.46;85.20;101348.44;5072060;28;45359;-70
2021/12/30 04:12:44;;;;;;;;;0.00;0.00;;;;;14.40;84.92;101332.72;5073697;28;45434;-70
2021/12/30 04:15:10;;;;;;;;;0.00;0.00;;;;;14.48;85.11;101351.06;5073660;28;45454;-70
2021/12/30 04:17:36;;;;;;;;;0.00;0.00;;;;;14.48;85.37;101348.41;5072204;28;46113;-71
2021/12/30 04:20:04;;;;;;;;;0.00;0.00;;;;;14.41;85.09;101355.78;5072971;28;45229;-71
2021/12/30 04:22:29;;;;;;;;;0.00;0.00;;;;;14.46;85.37;101353.78;5072713;28;45366;-71
2021/12/30 04:24:54;;;;;;;;;0.67;0.00;;;;;14.41;85.65;101354.88;5070623;28;45494;-71
2021/12/30 04:27:20;;;;;;;;;1.00;0.00;;;;;14.28;85.34;101327.91;5073852;28;46241;-71
2021/12/30 04:29:45;;;;;;;;;0.00;0.00;;;;;14.39;85.53;101362.09;5072164;28;45753;-71
2021/12/30 04:32:11;;;;;;;;;1.00;0.00;;;;;14.37;85.65;101351.50;5073271;27;45539;-71
2021/12/30 04:34:36;;;;;;;;;0.67;0.00;;;;;14.47;85.46;101365.28;5074259;28;45541;-71
2021/12/30 04:37:02;;;;;;;;;0.00;0.00;;;;;14.14;85.66;101315.13;5074696;28;45322;-71
2021/12/30 04:39:29;;;;;;;;;0.00;0.00;;;;;14.48;85.54;101375.91;5076256;27;45400;-71
2021/12/30 04:41:58;;;;;;;;;0.00;0.00;;;;;14.43;86.03;101367.22;5076361;28;45359;-71
2021/12/30 04:44:24;;;;;;;;;1.00;0.00;;;;;14.47;85.58;101371.50;5065217;28;45560;-71
2021/12/30 04:46:50;;;;;;;;;1.00;0.00;;;;;14.48;85.54;101365.25;5071434;28;46025;-71
2021/12/30 04:49:15;;;;;;;;;0.00;0.00;;;;;14.34;85.40;101348.09;5074705;28;45580;-71
2021/12/30 04:51:40;;;;;;;;;2.00;0.00;;;;;14.46;85.39;101374.22;5076425;28;45501;-71
2021/12/30 04:54:06;;;;;;;;;0.00;0.00;;;;;14.38;85.29;101353.22;5076727;28;45428;-71
2021/12/30 04:56:31;;;;;;;;;0.00;0.00;;;;;14.48;85.16;101367.03;5075286;28;45312;-71
2021/12/30 04:58:56;;;;;;;;;0.00;0.00;;;;;14.41;85.40;101361.09;5075377;28;45421;-71
2021/12/30 05:01:22;;;;;;;;;0.00;0.00;;;;;14.42;85.37;101353.97;5055450;28;45502;-71
2021/12/30 05:03:47;;;;;;;;;1.00;0.00;;;;;14.38;85.12;101350.56;5075530;28;45532;-71
2021/12/30 05:06:13;;;;;;;;;0.00;0.00;;;;;14.46;85.32;101359.09;5075075;28;45331;-71
2021/12/30 05:08:38;;;;;;;;;0.00;0.00;;;;;14.53;84.95;101379.28;5075152;28;45417;-71
2021/12/30 05:11:05;;;;;;;;;1.00;0.00;;;;;14.45;85.08;101359.19;5068765;28;45385;-71
2021/12/30 05:13:30;;;;;;;;;0.00;0.00;;;;;14.54;85.35;101385.47;5056873;28;45574;-71
2021/12/30 05:15:56;;;;;;;;;0.67;0.00;;;;;14.48;85.34;101375.03;5052012;28;48195;-71
2021/12/30 05:18:30;;;;;;;;;0.00;0.00;;;;;14.32;85.20;101362.34;5076822;28;45304;-71
2021/12/30 05:20:56;;;;;;;;;1.00;0.00;;;;;14.53;84.96;101376.63;5064738;28;45628;-71
2021/12/30 05:23:22;;;;;;;;;0.00;0.00;;;;;14.52;85.02;101392.66;5067992;28;45898;-71
2021/12/30 05:25:47;;;;;;;;;0.00;0.00;;;;;14.48;85.21;101375.91;5075149;28;45442;-71
2021/12/30 05:28:13;;;;;;;;;0.00;0.00;;;;;14.57;84.84;101384.47;5066504;28;45534;-71
2021/12/30 05:30:38;;;;;;;;;0.00;0.00;;;;;14.50;85.00;101379.38;5075472;28;46077;-71
2021/12/30 05:33:05;;;;;;;;;1.67;0.00;;;;;14.57;84.71;101384.47;5075702;28;45521;-71
2021/12/30 05:35:30;;;;;;;;;0.33;0.33;;;;;14.24;84.74;101327.16;5074403;28;45461;-71
2021/12/30 05:37:55;;;;;;;;;1.00;1.00;;;;;14.52;84.69;101387.31;5074968;28;45485;-71
2021/12/30 05:40:22;;;;;;;;;1.67;0.00;;;;;14.54;85.05;101391.66;5074822;28;45373;-71
2021/12/30 05:42:48;;;;;;;;;0.00;0.00;;;;;14.42;84.64;101365.50;5074739;28;45351;-71
2021/12/30 05:45:15;;;;;;;;;0.00;0.00;;;;;14.34;84.74;101364.94;5055795;28;46830;-71
2021/12/30 05:47:41;;;;;;;;;3.33;1.00;;;;;14.51;84.45;101383.78;5074399;28;45366;-71
2021/12/30 05:50:09;;;;;;;;;1.00;0.00;;;;;14.45;84.45;101376.03;5067243;28;45372;-70
2021/12/30 05:52:35;;;;;;;;;1.00;0.00;;;;;14.53;84.59;101384.59;5073384;28;45653;-71
2021/12/30 05:55:01;;;;;;;;;0.00;0.00;;;;;14.58;84.50;101397.72;5072300;28;46279;-70
2021/12/30 05:57:26;;;;;;;;;2.00;0.67;;;;;14.47;83.93;101376.84;5072288;28;45316;-71
2021/12/30 05:59:51;;;;;;;;;2.33;0.00;;;;;14.42;84.25;101367.28;5073830;28;45895;-71
2021/12/30 06:02:17;;;;;;;;;1.00;0.00;;;;;14.54;84.09;101377.47;5068790;28;45398;-71
2021/12/30 06:04:42;;;;;;;;;0.33;0.00;;;;;14.43;84.04;101367.22;5065240;28;46037;-71
2021/12/30 06:07:09;;;;;;;;;0.00;0.00;;;;;14.48;83.88;101381.22;5074243;28;45470;-71
2021/12/30 06:09:36;;;;;;;;;4.67;0.00;;;;;14.54;83.86;101389.00;5074544;28;45359;-71
2021/12/30 06:12:01;;;;;;;;;0.00;0.00;;;;;14.44;83.97;101363.66;5074889;28;46781;-71
2021/12/30 06:14:26;;;;;;;;;0.00;0.00;;;;;14.52;83.94;101371.34;5070085;28;46288;-70
2021/12/30 06:16:52;;;;;;;;;1.33;0.00;;;;;14.63;83.69;101389.56;5068860;28;45476;-70
2021/12/30 06:19:18;;;;;;;;;2.33;1.00;;;;;14.67;83.65;101401.81;5058618;28;45520;-70
2021/12/30 06:21:44;;;;;;;;;1.00;0.33;;;;;14.66;83.86;101394.75;5075221;28;45363;-71
2021/12/30 06:24:09;;;;;;;;;1.00;1.00;;;;;14.56;83.21;101372.97;5073778;28;45728;-71
2021/12/30 06:26:35;;;;;;;;;1.33;0.00;;;;;14.67;83.45;101399.16;5073950;28;45471;-71
2021/12/30 06:29:00;;;;;;;;;1.00;0.00;;;;;14.67;83.31;101412.47;5073935;28;45683;-71
2021/12/30 06:31:25;;;;;;;;;0.00;0.00;;;;;14.58;83.26;101388.88;5070330;28;45431;-71
2021/12/30 06:33:51;;;;;;;;;2.33;1.00;;;;;14.49;83.18;101380.28;5072305;28;45528;-71
2021/12/30 06:36:17;;;;;;;;;1.00;0.00;;;;;14.68;82.83;101416.88;5076056;28;45466;-71
2021/12/30 06:38:43;;;;;;;;;0.00;0.00;;;;;14.69;82.52;101414.16;5061954;28;45476;-71
2021/12/30 06:41:08;;;;;;;;;3.00;1.00;;;;;14.63;83.33;101405.53;5074747;28;45477;-71
2021/12/30 06:43:35;;;;;;;;;8.67;1.00;;;;;14.51;82.66;101374.91;5072916;28;46068;-71
2021/12/30 06:46:04;;;;;;;;;3.67;0.00;;;;;14.73;82.80;101421.06;5069709;28;45313;-71
2021/12/30 06:48:29;;;;;;;;;2.67;1.00;;;;;14.63;82.52;101398.41;5087642;27;45418;-71
2021/12/30 06:50:56;;;;;;;;;3.00;1.33;;;;;14.70;82.68;101418.53;5063557;28;45279;-71
2021/12/30 06:53:22;;;;;;;;;3.67;2.00;;;;;14.58;82.65;101394.19;5048527;28;47539;-71
2021/12/30 06:55:49;;;;;;;;;7.00;1.00;;;;;14.71;82.34;101420.28;5063252;27;45316;-71
2021/12/30 06:58:16;;;;;;;;;2.00;0.00;;;;;14.72;82.30;101423.81;5073978;28;45440;-71
2021/12/30 07:00:41;;;;;;;;;1.00;1.00;;;;;14.65;81.89;101406.34;5068779;27;45623;-71
2021/12/30 07:03:07;;;;;;;;;8.00;0.00;;;;;14.47;82.03;101375.94;5071525;28;45461;-71
2021/12/30 07:05:33;;;;;;;;;1.00;1.00;;;;;14.75;82.02;101421.03;5073642;28;45462;-71
2021/12/30 07:07:59;;;;;;;;;3.00;2.00;;;;;14.53;81.76;101397.94;5073683;28;45458;-71
2021/12/30 07:10:24;;;;;;;;;3.67;1.67;;;;;14.69;81.85;101423.94;5073411;28;45352;-70
2021/12/30 07:12:50;;;;;;;;;3.00;1.67;;;;;14.54;81.78;101404.97;5073748;28;45358;-70
2021/12/30 07:15:15;;;;;;;;;6.67;2.00;;;;;14.57;81.19;101411.97;5071689;28;45545;-70
2021/12/30 07:17:41;;;;;;;;;5.33;1.33;;;;;14.71;81.23;101433.59;5071357;28;45748;-70
2021/12/30 07:20:08;;;;;;;;;7.00;1.33;;;;;14.77;81.31;101437.81;5066392;28;45580;-71
2021/12/30 07:22:34;;;;;;;;;7.00;2.00;;;;;14.78;80.97;101442.22;5073215;28;45767;-71
2021/12/30 07:24:59;;;;;;;;;3.00;3.00;;;;;14.79;80.90;101449.25;5060081;28;45395;-71
2021/12/30 07:27:25;;;;;;;;;5.33;2.00;;;;;14.45;79.85;101401.78;5075265;28;45304;-71
2021/12/30 07:29:50;;;;;;;;;7.33;2.00;;;;;14.69;80.45;101448.78;5072449;28;49841;-71
2021/12/30 07:32:16;;;;;;;;;6.67;1.67;;;;;14.77;80.08;101464.47;5071109;28;46019;-71
2021/12/30 07:34:41;;;;;;;;;4.00;2.00;;;;;14.43;80.03;101414.28;5073110;27;45237;-71
2021/12/30 07:37:06;;;;;;;;;4.00;3.00;;;;;14.68;79.38;101459.50;5071951;28;45898;-71
2021/12/30 07:39:32;;;;;;;;;7.33;1.67;;;;;14.83;79.34;101477.53;5075371;28;45304;-71
2021/12/30 07:41:57;;;;;;;;;6.50;3.00;;;;;14.83;79.18;101482.88;5071862;28;45387;-71
2021/12/30 07:44:22;;;;;;;;;6.33;2.00;;;;;14.74;79.06;101461.94;5056523;28;45633;-71
2021/12/30 07:46:48;;;;;;;;;3.50;2.00;;;;;14.86;79.33;101485.41;5071847;28;45499;-71
2021/12/30 07:49:14;;;;;;;;;7.33;3.67;;;;;14.74;79.17;101459.25;5072948;28;45295;-71
2021/12/30 07:51:39;;;;;;;;;6.00;4.33;;;;;14.80;79.07;101474.13;5073972;28;46209;-71
2021/12/30 07:54:05;;;;;;;;;3.67;2.00;;;;;14.71;78.91;101459.38;5064501;28;45462;-70
2021/12/30 07:56:30;;;;;;;;;5.33;3.00;;;;;14.76;79.02;101478.69;5052576;28;45261;-70
2021/12/30 07:58:56;;;;;;;;;7.33;5.00;;;;;14.86;78.94;101496.06;5072889;28;45485;-71
2021/12/30 08:01:22;;;;;;;;;4.33;1.33;;;;;14.86;78.63;101496.06;5057439;28;46295;-70
2021/12/30 08:03:47;;;;;;;;;5.33;3.00;;;;;14.81;78.70;101481.19;5058348;28;45342;-70
2021/12/30 08:06:13;;;;;;;;;5.67;2.00;;;;;14.61;78.00;101453.53;5077008;28;45489;-71
2021/12/30 08:08:39;;;;;;;;;5.00;2.00;;;;;14.91;78.33;101503.88;5076099;28;45281;-71
2021/12/30 08:11:05;;;;;;;;;4.33;1.00;;;;;14.88;78.62;101496.88;5076123;28;45258;-71
2021/12/30 08:13:30;;;;;;;;;7.75;4.75;;;;;14.86;78.32;101504.06;5076003;28;45372;-70
2021/12/30 08:15:56;;;;;;;;;6.25;3.75;;;;;14.86;78.62;101501.41;5071048;28;45275;-70
2021/12/30 08:18:21;;;;;;;;;7.00;3.00;;;;;14.81;78.50;101494.50;5079028;27;45468;-70
2021/12/30 08:20:46;;;;;;;;;10.33;4.33;;;;;14.81;77.71;101490.03;5072744;28;46060;-70
2021/12/30 08:23:12;;;;;;;;;8.25;4.00;;;;;14.93;78.17;101516.19;5075859;27;45380;-70
2021/12/30 08:25:38;;;;;;;;;3.67;3.67;;;;;14.94;78.53;101528.63;5076354;28;45421;-71
2021/12/30 08:28:04;;;;;;;;;9.00;2.50;;;;;14.87;78.35;101510.25;5075133;28;45447;-70
2021/12/30 08:30:29;;;;;;;;;3.33;2.00;;;;;14.95;78.43;101527.69;5077004;28;46141;-70
2021/12/30 08:32:55;;;;;;;;;5.00;4.00;;;;;14.96;78.08;101528.53;5071639;28;45570;-70
2021/12/30 08:35:22;;;;;;;;;2.00;2.00;;;;;14.93;78.00;101526.00;5068847;28;45549;-70
2021/12/30 08:37:48;;;;;;;;;6.67;3.00;;;;;14.97;77.85;101536.50;5071840;28;45566;-70
2021/12/30 08:40:15;;;;;;;;;4.25;2.75;;;;;14.92;77.55;101533.13;5075699;28;46362;-71
2021/12/30 08:42:42;;;;;;;;;4.00;2.00;;;;;14.91;77.65;101534.06;5053670;27;45598;-70
2021/12/30 08:45:09;;;;;;;;;10.00;2.00;;;;;14.81;77.79;101518.50;5075741;28;45387;-71
2021/12/30 08:47:35;;;;;;;;;2.00;1.00;;;;;14.95;77.81;101537.47;5073038;28;45588;-71
2021/12/30 08:50:02;;;;;;;;;8.00;2.00;;;;;14.92;77.59;101534.94;5069375;28;48286;-71
2021/12/30 08:52:28;;;;;;;;;5.67;1.33;;;;;14.89;77.75;101535.06;5073422;28;45431;-70
2021/12/30 08:54:56;;;;;;;;;1.00;1.00;;;;;14.89;77.75;101535.91;5074038;27;45490;-70
2021/12/30 08:57:22;;;;;;;;;2.33;2.00;;;;;14.83;77.54;101528.16;5076077;28;45432;-70
2021/12/30 08:59:49;;;;;;;;;3.33;2.67;;;;;14.92;77.80;101545.59;5073406;28;45335;-70
2021/12/30 09:02:14;;;;;;;;;3.33;1.67;;;;;14.87;77.99;101535.09;5069643;28;45467;-70
2021/12/30 09:04:42;;;;;;;;;4.00;2.33;;;;;14.92;78.03;101543.78;5075480;28;45510;-70
2021/12/30 09:07:08;;;;;;;;;3.00;1.00;;;;;14.94;77.81;101541.06;5062243;28;45467;-70
2021/12/30 09:09:34;;;;;;;;;3.00;1.00;;;;;14.89;78.21;101532.41;5076901;28;46275;-70
2021/12/30 09:11:59;;;;;;;;;3.67;2.00;;;;;14.86;78.44;101533.38;5074414;28;45428;-70
2021/12/30 09:14:25;;;;;;;;;5.00;2.00;;;;;14.93;78.54;101537.53;5075245;28;45488;-70
2021/12/30 09:16:50;;;;;;;;;3.00;1.00;;;;;14.86;78.26;101541.38;5067780;28;45490;-70
2021/12/30 09:19:16;;;;;;;;;1.67;1.67;;;;;14.81;78.72;101538.00;5065021;28;46300;-71
2021/12/30 09:21:42;;;;;;;;;5.67;2.00;;;;;14.75;78.49;101538.25;5075022;28;45366;-71
2021/12/30 09:24:10;;;;;;;;;2.33;1.67;;;;;14.88;78.69;101546.63;5076527;27;45207;-70
2021/12/30 09:26:35;;;;;;;;;2.67;1.67;;;;;14.90;78.86;101569.63;5075009;28;45329;-70
2021/12/30 09:29:10;;;;;;;;;2.00;1.67;;;;;14.79;78.97;101549.66;5054832;28;47133;-71
2021/12/30 09:31:43;;;;;;;;;3.33;1.00;;;;;14.76;78.99;101537.31;5074135;28;45466;-71
2021/12/30 09:34:08;;;;;;;;;5.33;2.00;;;;;14.89;78.88;101567.91;5075055;27;45309;-71
2021/12/30 09:36:35;;;;;;;;;3.67;2.67;;;;;14.88;79.21;101563.50;5074412;28;45477;-70
2021/12/30 09:39:01;;;;;;;;;12.00;7.75;;;;;14.92;79.31;101578.44;5077487;27;46506;-71
2021/12/30 09:41:27;;;;;;;;;12.75;7.50;;;;;14.90;79.69;101598.94;5077342;27;45775;-71
2021/12/30 09:43:52;;;;;;;;;3.67;3.67;;;;;14.84;79.55;101574.34;5078846;27;45361;-71
2021/12/30 09:46:18;;;;;;;;;7.75;4.75;;;;;14.93;79.65;101581.97;5059103;28;47603;-70
2021/12/30 09:48:44;;;;;;;;;6.00;4.33;;;;;14.95;79.69;101588.13;5075831;28;45986;-71
2021/12/30 09:51:10;;;;;;;;;6.00;5.00;;;;;14.88;79.63;101579.50;5071532;28;45298;-70
2021/12/30 09:53:36;;;;;;;;;6.50;6.00;;;;;14.85;79.38;101568.94;5072941;27;45744;-70
2021/12/30 09:56:01;;;;;;;;;5.67;3.33;;;;;14.83;79.30;101565.47;5074185;28;45642;-70
2021/12/30 09:58:29;;;;;;;;;8.50;8.00;;;;;14.91;79.66;101582.03;5062457;27;45861;-70
2021/12/30 10:00:55;;;;;;;;;19.25;14.50;;;;;14.94;79.78;101583.69;5070244;28;45538;-70
2021/12/30 10:03:20;;;;;;;;;4.75;4.50;;;;;14.61;79.76;101528.13;5073439;27;45891;-70
2021/12/30 10:05:46;;;;;;;;;8.25;5.00;;;;;14.97;79.70;101592.47;5073172;28;45500;-70
2021/12/30 10:08:20;;;;;;;;;2.33;2.33;;;;;14.90;79.78;101585.63;5074404;28;45980;-70
2021/12/30 10:10:52;;;;;;;;;7.33;4.33;;;;;14.98;79.86;101588.84;5074934;27;45513;-70
2021/12/30 10:13:30;;;;;;;;;5.67;2.33;;;;;14.99;79.77;101597.72;5073821;28;45485;-70
2021/12/30 10:16:12;;;;;;;;;8.50;8.00;;;;;14.86;79.77;101585.81;5072521;28;45605;-70
2021/12/30 10:18:47;;;;;;;;;7.67;5.00;;;;;14.98;79.84;101599.53;5071548;28;46105;-70
2021/12/30 10:21:22;;;;;;;;;2.67;2.00;;;;;14.93;79.94;101601.50;5065953;28;45510;-70
2021/12/30 10:23:59;;;;;;;;;2.67;2.00;;;;;14.88;80.06;101583.94;5055216;28;45322;-70
2021/12/30 10:26:25;;;;;;;;;5.75;5.25;;;;;14.94;80.12;101587.25;5052220;28;45457;-70
2021/12/30 10:28:55;;;;;;;;;4.00;4.00;;;;;15.02;79.74;101602.06;5077411;27;48309;-70
2021/12/30 10:31:27;;;;;;;;;7.00;4.00;;;;;15.01;80.09;101603.88;5069158;28;45499;-70
2021/12/30 10:33:56;;;;;;;;;3.33;1.33;;;;;15.03;79.95;101612.69;5054142;28;45340;-71
2021/12/30 10:36:33;;;;;;;;;7.67;3.33;;;;;15.04;79.99;101608.22;5070747;28;45363;-70
2021/12/30 10:39:22;;;;;;;;;7.00;4.67;;;;;15.07;79.82;101602.75;5073096;28;46152;-70
2021/12/30 10:41:51;;;;;;;;;9.00;5.33;;;;;15.10;79.79;101599.97;5073030;28;47660;-70
2021/12/30 10:44:17;;;;;;;;;11.75;6.00;;;;;15.11;79.74;101602.56;5073938;28;45313;-70
2021/12/30 10:46:43;;;;;;;;;13.25;7.00;;;;;15.01;79.96;101579.03;5073411;28;45557;-70
2021/12/30 10:49:10;;;;;;;;;9.67;4.67;;;;;15.09;79.84;101590.22;5073051;28;45507;-70
2021/12/30 10:51:38;;;;;;;;;4.67;4.67;;;;;15.22;79.22;101603.00;5074740;28;45354;-70
2021/12/30 10:54:23;;;;;;;;;6.00;4.33;;;;;15.26;79.65;101593.09;5072726;28;45508;-70
2021/12/30 10:57:02;;;;;;;;;11.33;4.67;;;;;15.30;79.35;101593.84;5068945;28;45418;-70
2021/12/30 10:59:42;;;;;;;;;7.00;4.33;;;;;15.34;79.15;101592.78;5069114;28;47333;-70
2021/12/30 11:02:15;;;;;;;;;5.00;3.00;;;;;15.35;78.79;101594.50;5071849;27;45494;-72
2021/12/30 11:04:42;;;;;;;;;8.00;4.33;;;;;15.35;79.50;101584.75;5072849;28;47591;-71
2021/12/30 11:07:09;;;;;;;;;7.00;5.33;;;;;15.27;79.00;101570.84;5053226;28;45557;-71
2021/12/30 11:09:36;;;;;;;;;4.33;3.00;;;;;15.31;78.96;101572.44;5055736;28;46145;-69
2021/12/30 11:12:05;;;;;;;;;6.00;3.00;;;;;15.33;78.57;101567.06;5073464;28;45293;-69
2021/12/30 11:14:35;;;;;;;;;4.00;3.00;;;;;15.38;78.97;101579.28;5072953;28;45332;-71
2021/12/30 11:17:13;;;;;;;;;6.33;3.00;;;;;15.34;79.00;101572.31;5052577;28;45601;-71
2021/12/30 11:19:41;;;;;;;;;6.33;3.67;;;;;15.42;78.66;101586.22;5068303;28;46786;-71
2021/12/30 11:22:16;;;;;;;;;2.67;2.00;;;;;15.41;78.49;101576.50;5054129;28;45325;-71